createdAt,value
2022-10-20T00:00:31.529Z,101206.13
2022-10-20T00:02:59.050Z,101209.50
2022-10-20T00:05:26.555Z,101201.50
2022-10-20T00:07:54.021Z,101209.50
2022-10-20T00:10:21.484Z,101209.50
2022-10-20T00:12:50.304Z,101199.19
2022-10-20T00:15:17.932Z,101201.00
2022-10-20T00:17:46.353Z,101201.84
2022-10-20T00:22:42.247Z,101196.06
2022-10-20T00:25:10.135Z,101190.72
2022-10-20T00:27:37.706Z,101183.91
2022-10-20T00:30:07.380Z,101178.59
2022-10-20T00:32:35.085Z,101188.91
2022-10-20T00:35:02.710Z,101177.94
2022-10-20T00:37:30.163Z,101178.75
2022-10-20T00:39:57.641Z,101181.53
2022-10-20T00:42:25.077Z,101164.94
2022-10-20T00:44:57.208Z,101158.47
2022-10-20T00:47:35.146Z,101159.63
2022-10-20T00:50:06.804Z,101159.09
2022-10-20T00:52:35.126Z,101156.13
2022-10-20T00:55:03.401Z,101143.81
2022-10-20T00:57:31.938Z,101139.66
2022-10-20T00:59:59.497Z,101138.50
2022-10-20T01:02:27.031Z,101135.19
2022-10-20T01:04:55.915Z,101129.34
2022-10-20T01:07:23.534Z,101135.19
2022-10-20T01:09:51.211Z,101124.03
2022-10-20T01:12:27.341Z,101121.03
2022-10-20T01:15:00.519Z,101122.72
2022-10-20T01:17:34.869Z,101123.88
2022-10-20T01:20:43.231Z,101119.06
2022-10-20T01:23:24.435Z,101112.88
2022-10-20T01:26:04.866Z,101113.72
2022-10-20T01:28:38.812Z,101117.06
2022-10-20T01:31:15.437Z,101105.41
2022-10-20T01:33:44.714Z,101112.09
2022-10-20T01:36:14.682Z,101117.06
2022-10-20T01:38:45.092Z,101109.59
2022-10-20T01:41:15.653Z,101110.25
2022-10-20T01:43:46.628Z,101104.75
2022-10-20T01:46:15.230Z,101099.59
2022-10-20T01:48:42.882Z,101102.94
2022-10-20T01:51:10.992Z,101104.44
2022-10-20T01:53:38.784Z,101099.28
2022-10-20T01:56:08.147Z,101104.44
2022-10-20T01:59:01.614Z,101100.78
2022-10-20T02:01:39.048Z,101102.13
2022-10-20T02:04:08.283Z,101104.94
2022-10-20T02:06:41.293Z,101099.44
2022-10-20T02:09:14.178Z,101098.44
2022-10-20T02:11:46.288Z,101095.47
2022-10-20T02:14:16.878Z,101089.31
2022-10-20T02:16:48.408Z,101082.34
2022-10-20T02:19:18.678Z,101081.66
2022-10-20T02:21:46.654Z,101074.50
2022-10-20T02:24:15.953Z,101069.03
2022-10-20T02:26:44.598Z,101070.84
2022-10-20T02:29:17.003Z,101076.84
2022-10-20T02:31:45.088Z,101073.19
2022-10-20T02:34:13.280Z,101059.59
2022-10-20T02:36:42.454Z,101060.88
2022-10-20T02:39:10.802Z,101043.97
2022-10-20T02:41:38.887Z,101049.59
2022-10-20T02:44:06.503Z,101064.38
2022-10-20T02:46:35.316Z,101053.59
2022-10-20T02:49:02.768Z,101058.41
2022-10-20T02:51:30.244Z,101060.06
2022-10-20T02:53:57.757Z,101059.59
2022-10-20T02:56:27.551Z,101030.69
2022-10-20T02:58:57.727Z,101045.94
2022-10-20T03:01:25.758Z,101049.78
2022-10-20T03:03:58.498Z,101051.59
2022-10-20T03:06:26.321Z,101052.44
2022-10-20T03:08:53.840Z,101046.59
2022-10-20T03:11:21.314Z,101062.56
2022-10-20T03:13:48.767Z,101057.59
2022-10-20T03:16:16.326Z,101055.25
2022-10-20T03:18:43.807Z,101049.44
2022-10-20T03:21:13.066Z,101053.56
2022-10-20T03:23:40.601Z,101036.50
2022-10-20T03:26:09.384Z,101041.63
2022-10-20T03:28:36.881Z,101034.00
2022-10-20T03:31:04.493Z,101025.69
2022-10-20T03:33:31.982Z,101026.34
2022-10-20T03:35:59.463Z,101019.03
2022-10-20T03:38:28.300Z,101021.34
2022-10-20T03:40:55.918Z,101022.84
2022-10-20T03:43:23.422Z,101030.81
2022-10-20T03:45:51.174Z,101031.84
2022-10-20T03:48:18.673Z,101026.03
2022-10-20T03:50:46.133Z,101027.50
2022-10-20T03:53:14.218Z,101022.84
2022-10-20T03:55:43.032Z,101036.31
2022-10-20T03:58:10.500Z,101026.03
2022-10-20T04:00:38.006Z,101023.03
2022-10-20T04:03:05.471Z,101001.09
2022-10-20T04:05:32.976Z,100996.75
2022-10-20T04:08:00.445Z,100987.81
2022-10-20T04:10:27.964Z,100997.13
2022-10-20T04:12:58.839Z,100996.09
2022-10-20T04:15:26.345Z,100989.31
2022-10-20T04:17:53.986Z,100978.19
2022-10-20T04:20:21.557Z,100961.91
2022-10-20T04:22:49.078Z,100965.56
2022-10-20T04:25:16.919Z,100968.22
2022-10-20T04:27:44.377Z,100979.50
2022-10-20T04:30:13.285Z,100972.88
2022-10-20T04:32:40.816Z,100968.88
2022-10-20T04:35:09.379Z,100977.19
2022-10-20T04:37:37.158Z,100973.03
2022-10-20T04:40:05.461Z,100963.88
2022-10-20T04:42:32.999Z,100958.75
2022-10-20T04:45:00.521Z,100968.88
2022-10-20T04:47:32.519Z,100971.03
2022-10-20T04:50:00.084Z,100971.19
2022-10-20T04:52:29.416Z,100951.75
2022-10-20T04:54:56.959Z,100948.44
2022-10-20T04:57:24.654Z,100940.28
2022-10-20T04:59:52.112Z,100931.34
2022-10-20T05:02:19.640Z,100927.72
2022-10-20T05:04:48.650Z,100921.38
2022-10-20T05:07:16.113Z,100916.25
2022-10-20T05:09:43.709Z,100912.44
2022-10-20T05:12:11.237Z,100907.44
2022-10-20T05:14:38.840Z,100910.25
2022-10-20T05:17:09.222Z,100900.13
2022-10-20T05:19:37.556Z,100895.16
2022-10-20T05:22:06.372Z,100889.19
2022-10-20T05:24:33.852Z,100885.34
2022-10-20T05:27:01.347Z,100894.16
2022-10-20T05:29:28.871Z,100889.34
2022-10-20T05:31:56.329Z,100883.53
2022-10-20T05:34:23.861Z,100883.53
2022-10-20T05:36:53.544Z,100893.19
2022-10-20T05:39:22.691Z,100887.69
2022-10-20T05:41:50.180Z,100891.84
2022-10-20T05:44:17.642Z,100875.91
2022-10-20T05:46:45.151Z,100876.25
2022-10-20T05:49:15.344Z,100874.09
2022-10-20T05:51:43.113Z,100881.56
2022-10-20T05:54:12.571Z,100878.56
2022-10-20T05:56:41.730Z,100874.91
2022-10-20T05:59:10.685Z,100869.25
2022-10-20T06:01:48.057Z,100882.88
2022-10-20T06:04:17.003Z,100881.22
2022-10-20T06:06:44.963Z,100871.25
2022-10-20T06:09:13.172Z,100881.22
2022-10-20T06:11:42.021Z,100877.72
2022-10-20T06:14:10.520Z,100878.22
2022-10-20T06:16:38.140Z,100880.88
2022-10-20T06:19:06.676Z,100866.75
2022-10-20T06:21:35.416Z,100878.56
2022-10-20T06:24:04.670Z,100889.16
2022-10-20T06:26:33.413Z,100896.66
2022-10-20T06:29:04.536Z,100902.44
2022-10-20T06:31:33.773Z,100889.84
2022-10-20T06:34:01.906Z,100895.63
2022-10-20T06:36:29.623Z,100887.97
2022-10-20T06:38:58.177Z,100890.63
2022-10-20T06:41:27.242Z,100901.56
2022-10-20T06:43:59.055Z,100897.59
2022-10-20T06:46:29.858Z,100909.03
2022-10-20T06:48:58.819Z,100907.38
2022-10-20T06:51:26.653Z,100898.69
2022-10-20T06:53:54.267Z,100908.84
2022-10-20T06:56:23.005Z,100925.28
2022-10-20T06:58:52.932Z,100936.75
2022-10-20T07:01:23.215Z,100948.47
2022-10-20T07:03:53.726Z,100936.97
2022-10-20T07:06:23.674Z,100915.34
2022-10-20T07:08:53.558Z,100905.72
2022-10-20T07:11:22.746Z,100910.47
2022-10-20T07:13:50.237Z,100931.13
2022-10-20T07:16:19.223Z,100943.41
2022-10-20T07:18:47.093Z,100925.94
2022-10-20T07:21:17.941Z,100926.59
2022-10-20T07:23:46.103Z,100923.28
2022-10-20T07:26:15.972Z,100909.19
2022-10-20T07:28:45.031Z,100922.41
2022-10-20T07:31:14.907Z,100927.81
2022-10-20T07:33:42.689Z,100928.47
2022-10-20T07:36:16.344Z,100907.94
2022-10-20T07:38:44.763Z,100910.59
2022-10-20T07:41:12.398Z,100910.59
2022-10-20T07:43:40.580Z,100901.38
2022-10-20T07:46:08.519Z,100901.97
2022-10-20T07:48:36.038Z,100887.44
2022-10-20T07:51:26.678Z,100895.44
2022-10-20T07:53:58.234Z,100897.94
2022-10-20T07:56:29.240Z,100887.56
2022-10-20T07:58:56.996Z,100887.63
2022-10-20T08:01:24.642Z,100891.56
2022-10-20T08:03:52.455Z,100887.66
2022-10-20T08:06:21.397Z,100896.63
2022-10-20T08:08:49.014Z,100894.81
2022-10-20T08:11:16.796Z,100901.09
2022-10-20T08:13:44.285Z,100902.88
2022-10-20T08:16:13.038Z,100907.19
2022-10-20T08:18:42.353Z,100890.00
2022-10-20T08:21:12.870Z,100891.22
2022-10-20T08:23:41.856Z,100893.59
2022-10-20T08:26:11.440Z,100884.69
2022-10-20T08:28:39.281Z,100888.53
2022-10-20T08:31:09.796Z,100891.13
2022-10-20T08:33:37.718Z,100887.44
2022-10-20T08:36:06.659Z,100870.31
2022-10-20T08:38:34.195Z,100872.59
2022-10-20T08:41:07.319Z,100862.38
2022-10-20T08:43:37.665Z,100858.31
2022-10-20T08:46:05.628Z,100872.97
2022-10-20T08:48:34.013Z,100884.34
2022-10-20T08:51:01.567Z,100874.13
2022-10-20T08:53:30.692Z,100859.94
2022-10-20T08:55:58.759Z,100854.03
2022-10-20T08:58:27.605Z,100852.91
2022-10-20T09:00:58.052Z,100850.44
2022-10-20T09:03:29.481Z,100858.38
2022-10-20T09:06:01.701Z,100862.28
2022-10-20T09:08:31.547Z,100843.78
2022-10-20T09:10:59.563Z,100849.19
2022-10-20T09:13:30.046Z,100849.22
2022-10-20T09:16:00.485Z,100850.91
2022-10-20T09:18:28.024Z,100863.88
2022-10-20T09:20:57.269Z,100856.78
2022-10-20T09:23:40.710Z,100852.66
2022-10-20T09:26:24.697Z,100849.84
2022-10-20T09:29:15.046Z,100839.50
2022-10-20T09:31:44.817Z,100830.59
2022-10-20T09:34:26.904Z,100825.66
2022-10-20T09:36:59.370Z,100831.56
2022-10-20T09:39:29.165Z,100852.38
2022-10-20T09:44:40.472Z,100864.81
2022-10-20T09:47:13.308Z,100867.63
2022-10-20T09:49:40.844Z,100863.56
2022-10-20T09:52:17.848Z,100866.09
2022-10-20T09:54:48.110Z,100863.88
2022-10-20T09:57:19.567Z,100848.72
2022-10-20T09:59:49.756Z,100850.69
2022-10-20T10:02:32.700Z,100839.81
2022-10-20T10:05:15.899Z,100831.63
2022-10-20T10:07:43.432Z,100834.00
2022-10-20T10:10:28.366Z,100830.66
2022-10-20T10:12:57.858Z,100839.91
2022-10-20T10:15:29.529Z,100842.66
2022-10-20T10:17:57.606Z,100842.34
2022-10-20T10:20:34.635Z,100845.56
2022-10-20T10:23:22.393Z,100846.84
2022-10-20T10:25:50.351Z,100847.28
2022-10-20T10:28:30.767Z,100845.16
2022-10-20T10:31:21.379Z,100832.75
2022-10-20T10:33:50.888Z,100832.09
2022-10-20T10:36:26.754Z,100831.13
2022-10-20T10:38:54.995Z,100823.28
2022-10-20T10:41:28.720Z,100822.97
2022-10-20T10:44:01.333Z,100816.19
2022-10-20T10:46:36.869Z,100804.53
2022-10-20T10:49:23.461Z,100805.22
2022-10-20T10:51:59.036Z,100811.88
2022-10-20T10:54:39.969Z,100803.31
2022-10-20T10:57:14.574Z,100799.06
2022-10-20T10:59:44.312Z,100798.97
2022-10-20T11:02:43.570Z,100787.66
2022-10-20T11:05:23.222Z,100790.19
2022-10-20T11:07:56.220Z,100782.59
2022-10-20T11:10:27.521Z,100762.00
2022-10-20T11:13:11.817Z,100735.91
2022-10-20T11:15:47.366Z,100749.53
2022-10-20T11:18:29.900Z,100761.91
2022-10-20T11:21:04.428Z,100762.13
2022-10-20T11:23:53.840Z,100765.44
2022-10-20T11:26:28.324Z,100759.25
2022-10-20T11:28:57.945Z,100768.91
2022-10-20T11:31:29.426Z,100767.09
2022-10-20T11:34:05.602Z,100772.44
2022-10-20T11:36:39.710Z,100757.22
2022-10-20T11:39:13.059Z,100755.03
2022-10-20T11:41:44.578Z,100750.28
2022-10-20T11:44:15.974Z,100742.41
2022-10-20T11:46:47.906Z,100744.72
2022-10-20T11:49:16.865Z,100749.84
2022-10-20T11:52:16.119Z,100757.06
2022-10-20T11:54:59.310Z,100759.28
2022-10-20T11:57:38.307Z,100768.34
2022-10-20T12:00:17.381Z,100765.88
2022-10-20T12:03:08.616Z,100781.91
2022-10-20T12:05:48.563Z,100778.31
2022-10-20T12:08:29.801Z,100778.25
2022-10-20T12:11:03.695Z,100770.28
2022-10-20T12:13:37.609Z,100763.13
2022-10-20T12:16:05.539Z,100757.59
2022-10-20T12:18:33.753Z,100763.41
2022-10-20T12:21:03.959Z,100747.97
2022-10-20T12:23:54.758Z,100752.28
2022-10-20T12:26:43.846Z,100750.81
2022-10-20T12:30:02.857Z,100751.63
2022-10-20T12:33:00.980Z,100750.19
2022-10-20T12:36:01.007Z,100738.91
2022-10-20T12:38:31.055Z,100742.19
2022-10-20T12:41:00.563Z,100747.91
2022-10-20T12:43:34.323Z,100731.88
2022-10-20T12:46:07.483Z,100711.53
2022-10-20T12:48:36.335Z,100726.94
2022-10-20T12:51:08.553Z,100726.31
2022-10-20T12:53:37.422Z,100737.84
2022-10-20T12:56:08.041Z,100732.88
2022-10-20T12:58:36.345Z,100741.56
2022-10-20T13:01:08.454Z,100738.47
2022-10-20T13:03:38.914Z,100742.53
2022-10-20T13:06:39.792Z,100748.31
2022-10-20T13:09:24.311Z,100749.75
2022-10-20T13:12:24.057Z,100732.06
2022-10-20T13:14:55.704Z,100727.13
2022-10-20T13:17:51.292Z,100738.84
2022-10-20T13:20:25.451Z,100724.84
2022-10-20T13:22:53.959Z,100723.81
2022-10-20T13:25:41.842Z,100718.72
2022-10-20T13:28:18.320Z,100724.84
2022-10-20T13:31:01.851Z,100695.00
2022-10-20T13:33:58.491Z,100684.91
2022-10-20T13:36:28.704Z,100688.00
2022-10-20T13:39:01.886Z,100693.78
2022-10-20T13:41:35.239Z,100679.59
2022-10-20T13:44:11.061Z,100688.03
2022-10-20T13:46:47.661Z,100688.44
2022-10-20T13:49:27.306Z,100691.72
2022-10-20T13:51:56.722Z,100685.94
2022-10-20T13:54:26.394Z,100678.56
2022-10-20T13:56:55.809Z,100675.84
2022-10-20T13:59:24.888Z,100677.69
2022-10-20T14:01:54.491Z,100680.59
2022-10-20T14:04:30.567Z,100687.16
2022-10-20T14:07:03.519Z,100672.34
2022-10-20T14:09:31.111Z,100681.41
2022-10-20T14:12:03.489Z,100692.13
2022-10-20T14:14:32.032Z,100703.25
2022-10-20T14:17:00.992Z,100707.38
2022-10-20T14:19:30.431Z,100701.19
2022-10-20T14:22:00.084Z,100700.16
2022-10-20T14:24:31.737Z,100695.44
2022-10-20T14:27:01.904Z,100690.88
2022-10-20T14:29:31.002Z,100683.88
2022-10-20T14:31:58.974Z,100692.94
2022-10-20T14:34:36.537Z,100702.38
2022-10-20T14:37:05.269Z,100708.97
2022-10-20T14:39:36.305Z,100732.41
2022-10-20T14:42:06.837Z,100710.41
2022-10-20T14:44:36.055Z,100711.41
2022-10-20T14:47:05.925Z,100694.16
2022-10-20T14:49:35.751Z,100700.38
2022-10-20T14:52:04.810Z,100706.94
2022-10-20T14:54:37.813Z,100706.53
2022-10-20T14:57:39.749Z,100703.84
2022-10-20T15:00:38.320Z,100699.13
2022-10-20T15:03:07.821Z,100698.50
2022-10-20T15:05:39.742Z,100698.91
2022-10-20T15:08:17.458Z,100700.56
2022-10-20T15:10:45.395Z,100698.28
2022-10-20T15:13:30.776Z,100682.00
2022-10-20T15:16:01.113Z,100680.75
2022-10-20T15:18:29.807Z,100691.66
2022-10-20T15:20:57.740Z,100688.38
2022-10-20T15:23:27.296Z,100688.16
2022-10-20T15:25:57.067Z,100680.56
2022-10-20T15:28:32.201Z,100678.91
2022-10-20T15:31:02.436Z,100670.28
2022-10-20T15:33:30.009Z,100648.22
2022-10-20T15:36:00.301Z,100651.75
2022-10-20T15:38:27.868Z,100652.16
2022-10-20T15:40:55.554Z,100638.31
2022-10-20T15:43:23.165Z,100640.41
2022-10-20T15:45:54.342Z,100634.41
2022-10-20T15:48:25.808Z,100636.88
2022-10-20T15:50:54.122Z,100637.47
2022-10-20T15:53:22.165Z,100629.69
2022-10-20T15:55:49.917Z,100626.38
2022-10-20T15:58:17.555Z,100620.41
2022-10-20T16:00:45.157Z,100615.25
2022-10-20T16:03:16.413Z,100613.22
2022-10-20T16:05:45.527Z,100601.25
2022-10-20T16:10:43.491Z,100616.22
2022-10-20T16:13:12.030Z,100598.19
2022-10-20T16:15:39.684Z,100593.66
2022-10-20T16:18:09.689Z,100581.69
2022-10-20T16:20:38.026Z,100589.09
2022-10-20T16:23:07.068Z,100600.38
2022-10-20T16:25:34.762Z,100610.44
2022-10-20T16:28:02.538Z,100599.75
2022-10-20T16:30:30.300Z,100604.28
2022-10-20T16:32:57.943Z,100623.22
2022-10-20T16:35:25.581Z,100631.59
2022-10-20T16:37:53.225Z,100619.91
2022-10-20T16:40:22.203Z,100617.47
2022-10-20T16:42:49.826Z,100610.91
2022-10-20T16:45:17.706Z,100599.78
2022-10-20T16:47:45.332Z,100582.53
2022-10-20T16:50:13.284Z,100565.66
2022-10-20T16:52:40.982Z,100566.88
2022-10-20T16:55:09.633Z,100559.66
2022-10-20T16:57:39.793Z,100563.59
2022-10-20T17:00:09.880Z,100566.06
2022-10-20T17:02:38.093Z,100567.09
2022-10-20T17:05:09.134Z,100582.28
2022-10-20T17:07:37.760Z,100587.00
2022-10-20T17:10:06.366Z,100584.56
2022-10-20T17:12:33.833Z,100591.16
2022-10-20T17:15:02.671Z,100592.59
2022-10-20T17:17:30.300Z,100596.06
2022-10-20T17:19:57.767Z,100615.66
2022-10-20T17:22:25.243Z,100608.84
2022-10-20T17:24:52.770Z,100611.50
2022-10-20T17:27:20.255Z,100622.41
2022-10-20T17:29:48.255Z,100616.63
2022-10-20T17:32:18.271Z,100626.84
2022-10-20T17:34:45.919Z,100623.06
2022-10-20T17:37:13.488Z,100623.28
2022-10-20T17:39:40.959Z,100619.09
2022-10-20T17:42:08.815Z,100626.13
2022-10-20T17:44:36.593Z,100629.16
2022-10-20T17:47:04.425Z,100624.09
2022-10-20T17:49:35.023Z,100607.22
2022-10-20T17:52:02.599Z,100580.66
2022-10-20T17:54:30.195Z,100557.00
2022-10-20T17:56:58.101Z,100546.91
2022-10-20T17:59:25.839Z,100558.59
2022-10-20T18:01:54.046Z,100522.00
2022-10-20T18:04:21.883Z,100460.91
2022-10-20T18:06:50.894Z,100470.56
2022-10-20T18:09:19.535Z,100511.81
2022-10-20T18:11:48.767Z,100548.59
2022-10-20T18:14:16.944Z,100591.00
2022-10-20T18:16:44.954Z,100579.13
2022-10-20T18:19:14.988Z,100541.28
2022-10-20T18:21:42.939Z,100546.84
2022-10-20T18:24:14.555Z,100593.44
2022-10-20T18:26:42.500Z,100562.25
2022-10-20T18:29:14.109Z,100511.25
2022-10-20T18:31:43.042Z,100554.97
2022-10-20T18:34:12.754Z,100597.53
2022-10-20T18:36:44.941Z,100593.03
2022-10-20T18:39:16.291Z,100561.19
2022-10-20T18:41:45.454Z,100571.59
2022-10-20T18:44:14.812Z,100584.06
2022-10-20T18:46:43.001Z,100582.69
2022-10-20T18:49:12.769Z,100565.69
2022-10-20T18:51:41.027Z,100582.00
2022-10-20T18:54:09.604Z,100569.28
2022-10-20T18:56:38.774Z,100565.56
2022-10-20T18:59:08.660Z,100561.34
2022-10-20T19:01:37.632Z,100548.63
2022-10-20T19:04:06.191Z,100550.69
2022-10-20T19:06:36.561Z,100559.13
2022-10-20T19:09:06.530Z,100555.63
2022-10-20T19:11:36.308Z,100556.34
2022-10-20T19:14:09.527Z,100550.19
2022-10-20T19:16:37.471Z,100542.97
2022-10-20T19:19:06.553Z,100539.28
2022-10-20T19:21:34.544Z,100528.34
2022-10-20T19:24:04.466Z,100523.41
2022-10-20T19:26:33.586Z,100545.78
2022-10-20T19:29:02.765Z,100544.06
2022-10-20T19:31:36.684Z,100539.16
2022-10-20T19:34:07.695Z,100536.59
2022-10-20T19:36:35.837Z,100549.16
2022-10-20T19:39:05.143Z,100537.00
2022-10-20T19:41:32.957Z,100531.84
2022-10-20T19:44:01.081Z,100526.91
2022-10-20T19:46:29.385Z,100523.41
2022-10-20T19:48:58.570Z,100523.81
2022-10-20T19:51:26.329Z,100500.19
2022-10-20T19:53:53.889Z,100485.59
2022-10-20T19:56:21.647Z,100481.25
2022-10-20T19:58:49.575Z,100475.50
2022-10-20T20:01:17.921Z,100463.75
2022-10-20T20:03:46.004Z,100459.19
2022-10-20T20:06:16.580Z,100462.94
2022-10-20T20:08:45.528Z,100460.88
2022-10-20T20:11:22.794Z,100455.94
2022-10-20T20:13:52.459Z,100461.94
2022-10-20T20:16:20.722Z,100457.78
2022-10-20T20:18:49.267Z,100452.00
2022-10-20T20:21:18.754Z,100472.94
2022-10-20T20:23:58.872Z,100490.25
2022-10-20T20:26:28.326Z,100499.44
2022-10-20T20:28:56.352Z,100506.63
2022-10-20T20:31:24.666Z,100506.63
2022-10-20T20:33:53.041Z,100498.41
2022-10-20T20:36:22.507Z,100497.38
2022-10-20T20:38:52.602Z,100495.13
2022-10-20T20:41:24.512Z,100493.50
2022-10-20T20:43:52.172Z,100492.06
2022-10-20T20:46:22.637Z,100490.19
2022-10-20T20:48:53.843Z,100495.72
2022-10-20T20:51:24.414Z,100484.69
2022-10-20T20:53:51.992Z,100485.31
2022-10-20T20:56:21.939Z,100482.03
2022-10-20T20:58:55.267Z,100484.94
2022-10-20T21:01:24.392Z,100482.84
2022-10-20T21:03:54.011Z,100479.53
2022-10-20T21:06:28.798Z,100479.53
2022-10-20T21:09:01.905Z,100477.09
2022-10-20T21:11:29.645Z,100479.59
2022-10-20T21:13:58.963Z,100475.31
2022-10-20T21:16:29.342Z,100470.16
2022-10-20T21:18:58.304Z,100460.69
2022-10-20T21:21:28.625Z,100461.31
2022-10-20T21:23:57.111Z,100468.31
2022-10-20T21:26:25.062Z,100466.88
2022-10-20T21:28:52.946Z,100470.56
2022-10-20T21:31:22.658Z,100467.25
2022-10-20T21:33:51.372Z,100469.75
2022-10-20T21:36:20.234Z,100463.16
2022-10-20T21:38:49.406Z,100463.16
2022-10-20T21:41:18.513Z,100471.38
2022-10-20T21:43:47.481Z,100462.53
2022-10-20T21:46:16.654Z,100455.34
2022-10-20T21:48:45.317Z,100447.94
2022-10-20T21:51:15.499Z,100449.78
2022-10-20T21:53:43.197Z,100449.16
2022-10-20T21:56:12.552Z,100450.41
2022-10-20T21:58:40.290Z,100457.81
2022-10-20T22:01:11.752Z,100463.56
2022-10-20T22:03:39.738Z,100452.88
2022-10-20T22:06:07.862Z,100443.59
2022-10-20T22:08:36.480Z,100431.06
2022-10-20T22:11:05.463Z,100441.13
2022-10-20T22:13:34.464Z,100449.56
2022-10-20T22:16:02.225Z,100435.59
2022-10-20T22:18:29.772Z,100440.94
2022-10-20T22:20:57.428Z,100446.28
2022-10-20T22:23:25.114Z,100438.03
2022-10-20T22:25:54.213Z,100441.53
2022-10-20T22:28:21.797Z,100427.78
2022-10-20T22:30:50.767Z,100425.50
2022-10-20T22:33:18.723Z,100431.69
2022-10-20T22:35:46.199Z,100434.16
2022-10-20T22:38:13.779Z,100427.97
2022-10-20T22:40:41.431Z,100435.56
2022-10-20T22:43:08.883Z,100435.78
2022-10-20T22:45:36.368Z,100433.94
2022-10-20T22:48:05.523Z,100439.28
2022-10-20T22:50:32.976Z,100423.22
2022-10-20T22:53:00.428Z,100423.22
2022-10-20T22:55:27.882Z,100429.56
2022-10-20T22:57:55.433Z,100431.84
2022-10-20T23:00:22.953Z,100440.13
2022-10-20T23:02:50.427Z,100436.19
2022-10-20T23:05:19.301Z,100450.00
2022-10-20T23:07:46.825Z,100443.00
2022-10-20T23:10:14.337Z,100453.47
2022-10-20T23:12:41.832Z,100443.19
2022-10-20T23:15:09.909Z,100449.13
2022-10-20T23:17:37.743Z,100439.91
2022-10-20T23:20:06.011Z,100450.81
2022-10-20T23:22:34.855Z,100447.94
2022-10-20T23:25:02.303Z,100444.03
2022-10-20T23:27:29.879Z,100453.31
2022-10-20T23:29:57.375Z,100450.00
2022-10-20T23:32:24.901Z,100446.28
2022-10-20T23:34:52.358Z,100451.03
2022-10-20T23:37:21.781Z,100454.94
2022-10-20T23:39:50.751Z,100468.94
2022-10-20T23:42:18.543Z,100459.88
2022-10-20T23:44:46.039Z,100472.03
2022-10-20T23:47:13.527Z,100469.94
2022-10-20T23:49:40.957Z,100458.03
2022-10-20T23:52:08.433Z,100453.72
2022-10-20T23:54:35.896Z,100448.75
2022-10-20T23:57:04.756Z,100440.13
2022-10-20T23:59:32.210Z,100426.56
